Terminal Aerodrome Forecast
Issued by NWS

Current Version | Previous Version | Text Only | Print | Product List | Glossary Off
Versions: 1 2 3 4 5 6 7 8 9 10 11 12 13 14 15 16 17 18 19 20 21 22 23

000
FTUS41 KRLX 282301 AAB
TAFCKB
TAF AMD
KCKB 282301Z 2823/2918 VRB04KT P6SM SCT070
     FM290300 00000KT 4SM BR FEW090
     FM290600 00000KT 1/4SM FG OVC001
     FM291300 VRB04KT P6SM SCT035=

USA.gov is the U.S. government's official web portal to all federal, state and local government web resources and services.